PN63 weather

Limerick Generating Station Heliport
Sanatoga, Pennsylvania, United States

Public forecast

Using degrees Fahrenheit for public forecast. Weather courtesy of forecast.io.

Closest aviation weather report (METAR) to Limerick Generating Station Heliport

Closest report is Heritage Field, 1.3 nm (2.4 km) ENE. Retrieved 2020/08/08 10:13 UTC (2 hours ago):

KPTW 081013Z AUTO 00000KT 1/4SM FG VV002 18/18 A3017 RMK AO2 T01780178

Closest aviation forecast (TAF) to Limerick Generating Station Heliport

Closest forecast is Reading Regional Carl A Spaatz Field, 19.5 nm (36.2 km) WNW. Retrieved 2020/08/08 06:22 UTC (5 hours ago):

TAF KRDG 080520Z 0806/0906 00000KT 4SM BR OVC015 FM080800 00000KT 3SM BR OVC007 FM081200 VRB02KT P6SM OVC020 FM081600 VRB03KT P6SM SCT025 SCT050 FM090000 VRB02KT P6SM SKC